sensor_id;sensor_type;location;lat;lon;timestamp;temperature;humidity
52323;DHT22;38263;52.920;6.238;2023-07-29T00:00:34;18.40;99.90
52323;DHT22;38263;52.920;6.238;2023-07-29T00:02:59;18.30;99.90
52323;DHT22;38263;52.920;6.238;2023-07-29T00:15:09;18.20;99.90
52323;DHT22;38263;52.920;6.238;2023-07-29T00:17:35;18.20;99.90
52323;DHT22;38263;52.920;6.238;2023-07-29T00:20:00;18.20;99.90
52323;DHT22;38263;52.920;6.238;2023-07-29T00:24:53;18.20;99.90
52323;DHT22;38263;52.920;6.238;2023-07-29T00:32:15;18.10;99.90
52323;DHT22;38263;52.920;6.238;2023-07-29T00:34:41;18.20;99.90
52323;DHT22;38263;52.920;6.238;2023-07-29T00:37:06;18.10;99.90
52323;DHT22;38263;52.920;6.238;2023-07-29T00:46:52;18.00;99.90
52323;DHT22;38263;52.920;6.238;2023-07-29T00:49:19;17.80;99.90
52323;DHT22;38263;52.920;6.238;2023-07-29T00:51:45;17.90;99.90
52323;DHT22;38263;52.920;6.238;2023-07-29T00:54:11;17.90;99.90
52323;DHT22;38263;52.920;6.238;2023-07-29T00:56:37;17.90;99.90
52323;DHT22;38263;52.920;6.238;2023-07-29T00:59:03;17.90;99.90
52323;DHT22;38263;52.920;6.238;2023-07-29T01:01:29;17.80;99.90
52323;DHT22;38263;52.920;6.238;2023-07-29T01:03:55;17.70;99.90
52323;DHT22;38263;52.920;6.238;2023-07-29T01:06:50;17.80;99.90
52323;DHT22;38263;52.920;6.238;2023-07-29T01:15:25;17.70;99.90
52323;DHT22;38263;52.920;6.238;2023-07-29T01:17:59;17.70;99.90
52323;DHT22;38263;52.920;6.238;2023-07-29T01:20:27;17.70;99.90
52323;DHT22;38263;52.920;6.238;2023-07-29T01:25:19;17.70;99.90
52323;DHT22;38263;52.920;6.238;2023-07-29T01:27:48;17.50;99.90
52323;DHT22;38263;52.920;6.238;2023-07-29T01:30:17;17.50;99.90
52323;DHT22;38263;52.920;6.238;2023-07-29T01:35:46;17.50;99.90
52323;DHT22;38263;52.920;6.238;2023-07-29T01:38:33;17.50;99.90
52323;DHT22;38263;52.920;6.238;2023-07-29T01:41:07;17.40;99.90
52323;DHT22;38263;52.920;6.238;2023-07-29T01:46:00;17.30;99.90
52323;DHT22;38263;52.920;6.238;2023-07-29T01:48:26;17.70;99.90
52323;DHT22;38263;52.920;6.238;2023-07-29T02:00:37;17.40;99.90
52323;DHT22;38263;52.920;6.238;2023-07-29T02:12:47;17.30;99.90
52323;DHT22;38263;52.920;6.238;2023-07-29T02:15:12;17.20;99.90
52323;DHT22;38263;52.920;6.238;2023-07-29T02:17:41;17.40;99.90
52323;DHT22;38263;52.920;6.238;2023-07-29T02:20:07;17.20;99.90
52323;DHT22;38263;52.920;6.238;2023-07-29T02:27:26;17.20;99.90
52323;DHT22;38263;52.920;6.238;2023-07-29T02:29:53;17.00;99.90
52323;DHT22;38263;52.920;6.238;2023-07-29T02:34:44;17.30;99.90
52323;DHT22;38263;52.920;6.238;2023-07-29T02:39:36;17.20;99.90
52323;DHT22;38263;52.920;6.238;2023-07-29T02:42:02;17.20;99.90
52323;DHT22;38263;52.920;6.238;2023-07-29T02:44:28;17.40;99.90
52323;DHT22;38263;52.920;6.238;2023-07-29T02:51:47;17.20;99.90
52323;DHT22;38263;52.920;6.238;2023-07-29T02:59:05;17.00;99.90
52323;DHT22;38263;52.920;6.238;2023-07-29T03:08:48;17.20;99.90
52323;DHT22;38263;52.920;6.238;2023-07-29T03:11:14;17.20;99.90
52323;DHT22;38263;52.920;6.238;2023-07-29T03:16:16;16.90;99.90
52323;DHT22;38263;52.920;6.238;2023-07-29T03:18:43;17.20;99.90
52323;DHT22;38263;52.920;6.238;2023-07-29T03:21:09;17.00;99.90
52323;DHT22;38263;52.920;6.238;2023-07-29T03:23:36;17.20;99.90
52323;DHT22;38263;52.920;6.238;2023-07-29T03:26:02;17.10;99.90
52323;DHT22;38263;52.920;6.238;2023-07-29T03:28:37;16.80;99.90
52323;DHT22;38263;52.920;6.238;2023-07-29T03:33:29;17.10;99.90
52323;DHT22;38263;52.920;6.238;2023-07-29T03:38:21;17.10;99.90
52323;DHT22;38263;52.920;6.238;2023-07-29T03:45:39;16.90;99.90
52323;DHT22;38263;52.920;6.238;2023-07-29T03:50:34;16.80;99.90
52323;DHT22;38263;52.920;6.238;2023-07-29T03:55:26;16.80;99.90
52323;DHT22;38263;52.920;6.238;2023-07-29T04:02:44;16.80;99.90
52323;DHT22;38263;52.920;6.238;2023-07-29T04:10:03;16.80;99.90
52323;DHT22;38263;52.920;6.238;2023-07-29T04:12:30;16.80;99.90
52323;DHT22;38263;52.920;6.238;2023-07-29T04:14:56;16.70;99.90
52323;DHT22;38263;52.920;6.238;2023-07-29T04:17:21;16.50;99.90
52323;DHT22;38263;52.920;6.238;2023-07-29T04:22:15;16.70;99.90
52323;DHT22;38263;52.920;6.238;2023-07-29T04:27:06;16.80;99.90
52323;DHT22;38263;52.920;6.238;2023-07-29T04:29:32;16.90;99.90
52323;DHT22;38263;52.920;6.238;2023-07-29T04:36:49;16.90;99.90
52323;DHT22;38263;52.920;6.238;2023-07-29T04:39:15;16.80;99.90
52323;DHT22;38263;52.920;6.238;2023-07-29T04:44:07;16.80;99.90
52323;DHT22;38263;52.920;6.238;2023-07-29T04:46:33;16.80;99.90
52323;DHT22;38263;52.920;6.238;2023-07-29T04:51:24;16.90;99.90
52323;DHT22;38263;52.920;6.238;2023-07-29T04:53:50;16.90;99.90
52323;DHT22;38263;52.920;6.238;2023-07-29T04:58:42;16.90;99.90
52323;DHT22;38263;52.920;6.238;2023-07-29T05:01:08;16.80;99.90
52323;DHT22;38263;52.920;6.238;2023-07-29T05:08:26;17.00;99.90
52323;DHT22;38263;52.920;6.238;2023-07-29T05:10:52;16.90;99.90
52323;DHT22;38263;52.920;6.238;2023-07-29T05:15:44;16.90;99.90
52323;DHT22;38263;52.920;6.238;2023-07-29T05:20:36;16.80;99.90
52323;DHT22;38263;52.920;6.238;2023-07-29T05:25:29;16.90;99.90
52323;DHT22;38263;52.920;6.238;2023-07-29T05:30:20;17.00;99.90
52323;DHT22;38263;52.920;6.238;2023-07-29T05:37:38;16.90;99.90
52323;DHT22;38263;52.920;6.238;2023-07-29T05:40:06;17.00;99.90
52323;DHT22;38263;52.920;6.238;2023-07-29T05:42:32;16.90;99.90
52323;DHT22;38263;52.920;6.238;2023-07-29T05:52:16;17.10;99.90
52323;DHT22;38263;52.920;6.238;2023-07-29T05:54:41;17.10;99.90
52323;DHT22;38263;52.920;6.238;2023-07-29T05:57:09;17.30;99.90
52323;DHT22;38263;52.920;6.238;2023-07-29T06:11:46;17.70;99.90
52323;DHT22;38263;52.920;6.238;2023-07-29T06:14:12;17.70;99.90
52323;DHT22;38263;52.920;6.238;2023-07-29T06:16:37;18.50;99.90
52323;DHT22;38263;52.920;6.238;2023-07-29T06:21:29;20.20;99.90
52323;DHT22;38263;52.920;6.238;2023-07-29T06:23:55;20.50;99.90
52323;DHT22;38263;52.920;6.238;2023-07-29T06:26:20;22.40;99.90
52323;DHT22;38263;52.920;6.238;2023-07-29T06:28:46;19.90;99.90
52323;DHT22;38263;52.920;6.238;2023-07-29T06:31:11;19.70;99.90
52323;DHT22;38263;52.920;6.238;2023-07-29T06:33:37;19.40;99.90
52323;DHT22;38263;52.920;6.238;2023-07-29T06:36:02;19.10;99.90
52323;DHT22;38263;52.920;6.238;2023-07-29T06:38:28;19.10;99.90
52323;DHT22;38263;52.920;6.238;2023-07-29T06:43:20;19.10;99.90
52323;DHT22;38263;52.920;6.238;2023-07-29T06:45:45;19.20;99.90
52323;DHT22;38263;52.920;6.238;2023-07-29T06:50:37;20.00;99.90
52323;DHT22;38263;52.920;6.238;2023-07-29T06:53:03;20.00;99.90
52323;DHT22;38263;52.920;6.238;2023-07-29T06:55:28;19.80;99.90
52323;DHT22;38263;52.920;6.238;2023-07-29T07:00:20;19.40;99.90
52323;DHT22;38263;52.920;6.238;2023-07-29T07:02:45;19.10;99.90
52323;DHT22;38263;52.920;6.238;2023-07-29T07:07:37;18.70;99.90
52323;DHT22;38263;52.920;6.238;2023-07-29T07:10:03;18.70;99.90
52323;DHT22;38263;52.920;6.238;2023-07-29T07:14:55;18.60;99.90
52323;DHT22;38263;52.920;6.238;2023-07-29T07:17:20;18.70;99.90
52323;DHT22;38263;52.920;6.238;2023-07-29T07:22:12;18.60;99.90
52323;DHT22;38263;52.920;6.238;2023-07-29T07:24:38;18.50;99.90
52323;DHT22;38263;52.920;6.238;2023-07-29T07:27:04;18.60;99.90
52323;DHT22;38263;52.920;6.238;2023-07-29T07:31:56;18.60;99.90
52323;DHT22;38263;52.920;6.238;2023-07-29T07:34:22;18.40;99.90
52323;DHT22;38263;52.920;6.238;2023-07-29T07:36:48;18.60;99.90
52323;DHT22;38263;52.920;6.238;2023-07-29T07:39:14;18.70;99.90
52323;DHT22;38263;52.920;6.238;2023-07-29T07:41:41;18.60;99.90
52323;DHT22;38263;52.920;6.238;2023-07-29T07:46:36;18.80;99.90
52323;DHT22;38263;52.920;6.238;2023-07-29T07:49:01;18.90;99.90
52323;DHT22;38263;52.920;6.238;2023-07-29T07:56:19;19.20;99.90
52323;DHT22;38263;52.920;6.238;2023-07-29T07:58:44;19.40;99.90
52323;DHT22;38263;52.920;6.238;2023-07-29T08:01:11;19.60;99.90
52323;DHT22;38263;52.920;6.238;2023-07-29T08:03:36;19.60;99.90
52323;DHT22;38263;52.920;6.238;2023-07-29T08:08:28;19.30;99.90
52323;DHT22;38263;52.920;6.238;2023-07-29T08:10:55;19.30;99.90
52323;DHT22;38263;52.920;6.238;2023-07-29T08:13:21;19.20;99.90
52323;DHT22;38263;52.920;6.238;2023-07-29T08:15:49;19.40;99.90
52323;DHT22;38263;52.920;6.238;2023-07-29T08:18:15;19.60;99.90
52323;DHT22;38263;52.920;6.238;2023-07-29T08:20:41;19.80;99.90
52323;DHT22;38263;52.920;6.238;2023-07-29T08:23:07;20.00;99.90
52323;DHT22;38263;52.920;6.238;2023-07-29T08:27:59;19.90;99.90
52323;DHT22;38263;52.920;6.238;2023-07-29T08:32:50;19.90;99.90
52323;DHT22;38263;52.920;6.238;2023-07-29T08:35:16;19.80;99.90
52323;DHT22;38263;52.920;6.238;2023-07-29T08:42:34;19.90;99.90
52323;DHT22;38263;52.920;6.238;2023-07-29T08:45:06;20.00;99.90
52323;DHT22;38263;52.920;6.238;2023-07-29T08:47:33;20.30;99.90
52323;DHT22;38263;52.920;6.238;2023-07-29T08:49:59;20.20;99.90
52323;DHT22;38263;52.920;6.238;2023-07-29T08:52:26;20.40;99.90
52323;DHT22;38263;52.920;6.238;2023-07-29T08:54:52;20.40;99.90
52323;DHT22;38263;52.920;6.238;2023-07-29T08:57:19;20.30;99.90
52323;DHT22;38263;52.920;6.238;2023-07-29T08:59:45;20.30;99.90
52323;DHT22;38263;52.920;6.238;2023-07-29T09:02:11;20.30;99.90
52323;DHT22;38263;52.920;6.238;2023-07-29T09:04:37;20.10;99.90
52323;DHT22;38263;52.920;6.238;2023-07-29T09:07:03;20.00;99.90
52323;DHT22;38263;52.920;6.238;2023-07-29T09:09:29;20.00;99.90
52323;DHT22;38263;52.920;6.238;2023-07-29T09:11:55;20.10;99.90
52323;DHT22;38263;52.920;6.238;2023-07-29T09:14:21;20.20;99.90
52323;DHT22;38263;52.920;6.238;2023-07-29T09:16:47;20.30;99.90
52323;DHT22;38263;52.920;6.238;2023-07-29T09:19:12;20.40;99.90
52323;DHT22;38263;52.920;6.238;2023-07-29T09:21:39;20.40;99.90
52323;DHT22;38263;52.920;6.238;2023-07-29T09:24:05;20.50;99.90
52323;DHT22;38263;52.920;6.238;2023-07-29T09:26:32;20.30;99.90
52323;DHT22;38263;52.920;6.238;2023-07-29T09:28:59;20.80;99.90
52323;DHT22;38263;52.920;6.238;2023-07-29T09:31:27;20.70;99.90
52323;DHT22;38263;52.920;6.238;2023-07-29T09:36:23;20.90;99.90
52323;DHT22;38263;52.920;6.238;2023-07-29T09:38:55;20.80;99.90
52323;DHT22;38263;52.920;6.238;2023-07-29T09:41:26;20.70;99.90
52323;DHT22;38263;52.920;6.238;2023-07-29T09:43:57;21.10;99.90
52323;DHT22;38263;52.920;6.238;2023-07-29T09:46:35;21.00;99.90
52323;DHT22;38263;52.920;6.238;2023-07-29T09:49:06;21.20;99.90
52323;DHT22;38263;52.920;6.238;2023-07-29T09:51:32;21.00;99.90
52323;DHT22;38263;52.920;6.238;2023-07-29T09:54:02;21.20;99.90
52323;DHT22;38263;52.920;6.238;2023-07-29T09:56:29;21.00;99.90
52323;DHT22;38263;52.920;6.238;2023-07-29T09:58:58;21.20;99.90
52323;DHT22;38263;52.920;6.238;2023-07-29T10:01:24;21.00;99.90
52323;DHT22;38263;52.920;6.238;2023-07-29T10:03:50;21.00;99.90
52323;DHT22;38263;52.920;6.238;2023-07-29T10:06:15;20.90;99.90
52323;DHT22;38263;52.920;6.238;2023-07-29T10:08:43;21.00;99.90
52323;DHT22;38263;52.920;6.238;2023-07-29T10:11:10;21.00;99.90
52323;DHT22;38263;52.920;6.238;2023-07-29T10:13:37;20.70;99.90
52323;DHT22;38263;52.920;6.238;2023-07-29T10:16:04;21.20;99.90
52323;DHT22;38263;52.920;6.238;2023-07-29T10:18:31;20.90;99.90
52323;DHT22;38263;52.920;6.238;2023-07-29T10:20:58;20.90;99.90
52323;DHT22;38263;52.920;6.238;2023-07-29T10:23:25;20.80;99.90
52323;DHT22;38263;52.920;6.238;2023-07-29T10:26:05;20.60;99.90
52323;DHT22;38263;52.920;6.238;2023-07-29T10:28:31;20.40;99.90
52323;DHT22;38263;52.920;6.238;2023-07-29T10:30:58;20.40;99.90
52323;DHT22;38263;52.920;6.238;2023-07-29T10:33:24;20.40;99.90
52323;DHT22;38263;52.920;6.238;2023-07-29T10:35:51;20.50;99.90
52323;DHT22;38263;52.920;6.238;2023-07-29T10:38:18;20.60;99.90
52323;DHT22;38263;52.920;6.238;2023-07-29T10:40:51;20.50;99.90
52323;DHT22;38263;52.920;6.238;2023-07-29T10:43:25;20.50;99.90
52323;DHT22;38263;52.920;6.238;2023-07-29T10:45:51;20.40;99.90
52323;DHT22;38263;52.920;6.238;2023-07-29T10:51:23;20.30;99.90
52323;DHT22;38263;52.920;6.238;2023-07-29T10:53:56;20.50;99.90
52323;DHT22;38263;52.920;6.238;2023-07-29T10:59:00;20.50;99.90
52323;DHT22;38263;52.920;6.238;2023-07-29T11:01:29;20.60;99.90
52323;DHT22;38263;52.920;6.238;2023-07-29T11:12:37;21.00;99.90
52323;DHT22;38263;52.920;6.238;2023-07-29T11:15:28;21.00;99.90
52323;DHT22;38263;52.920;6.238;2023-07-29T11:17:54;21.10;99.90
52323;DHT22;38263;52.920;6.238;2023-07-29T11:20:26;20.80;99.90
52323;DHT22;38263;52.920;6.238;2023-07-29T11:22:57;21.00;99.90
52323;DHT22;38263;52.920;6.238;2023-07-29T11:25:24;21.10;99.90
52323;DHT22;38263;52.920;6.238;2023-07-29T11:27:55;21.20;99.90
52323;DHT22;38263;52.920;6.238;2023-07-29T11:30:21;21.30;99.90
52323;DHT22;38263;52.920;6.238;2023-07-29T11:32:48;21.20;99.90
52323;DHT22;38263;52.920;6.238;2023-07-29T11:35:16;21.10;99.90
52323;DHT22;38263;52.920;6.238;2023-07-29T11:37:47;22.60;99.90
52323;DHT22;38263;52.920;6.238;2023-07-29T11:40:17;20.70;99.90
52323;DHT22;38263;52.920;6.238;2023-07-29T11:42:44;20.90;99.90
52323;DHT22;38263;52.920;6.238;2023-07-29T11:45:11;20.80;99.90
52323;DHT22;38263;52.920;6.238;2023-07-29T11:47:37;21.90;99.90
52323;DHT22;38263;52.920;6.238;2023-07-29T11:50:07;21.00;99.90
52323;DHT22;38263;52.920;6.238;2023-07-29T11:52:35;21.00;99.90
52323;DHT22;38263;52.920;6.238;2023-07-29T11:55:02;21.60;99.90
52323;DHT22;38263;52.920;6.238;2023-07-29T11:57:29;21.00;99.90
52323;DHT22;38263;52.920;6.238;2023-07-29T11:59:55;21.40;99.90
52323;DHT22;38263;52.920;6.238;2023-07-29T12:02:22;21.40;99.90
52323;DHT22;38263;52.920;6.238;2023-07-29T12:04:49;21.10;99.90
52323;DHT22;38263;52.920;6.238;2023-07-29T12:07:16;22.30;99.90
52323;DHT22;38263;52.920;6.238;2023-07-29T12:09:43;21.20;99.90
52323;DHT22;38263;52.920;6.238;2023-07-29T12:12:08;21.40;99.90
52323;DHT22;38263;52.920;6.238;2023-07-29T12:14:35;21.30;99.90
52323;DHT22;38263;52.920;6.238;2023-07-29T12:17:02;21.00;99.90
52323;DHT22;38263;52.920;6.238;2023-07-29T12:19:35;20.90;99.90
52323;DHT22;38263;52.920;6.238;2023-07-29T12:22:02;20.80;99.90
52323;DHT22;38263;52.920;6.238;2023-07-29T12:24:30;21.20;99.90
52323;DHT22;38263;52.920;6.238;2023-07-29T12:26:56;21.20;99.90
52323;DHT22;38263;52.920;6.238;2023-07-29T12:29:22;21.00;99.90
52323;DHT22;38263;52.920;6.238;2023-07-29T12:31:48;21.20;99.90
52323;DHT22;38263;52.920;6.238;2023-07-29T12:34:19;21.50;99.90
52323;DHT22;38263;52.920;6.238;2023-07-29T12:36:47;21.40;99.90
52323;DHT22;38263;52.920;6.238;2023-07-29T12:39:22;21.20;99.90
52323;DHT22;38263;52.920;6.238;2023-07-29T12:41:49;21.20;99.90
52323;DHT22;38263;52.920;6.238;2023-07-29T12:44:15;23.30;99.90
52323;DHT22;38263;52.920;6.238;2023-07-29T12:46:41;21.50;99.90
52323;DHT22;38263;52.920;6.238;2023-07-29T12:49:07;21.50;99.90
52323;DHT22;38263;52.920;6.238;2023-07-29T12:51:33;21.50;99.90
52323;DHT22;38263;52.920;6.238;2023-07-29T12:53:58;21.50;99.90
52323;DHT22;38263;52.920;6.238;2023-07-29T12:56:24;23.20;99.90
52323;DHT22;38263;52.920;6.238;2023-07-29T12:58:50;21.50;99.90
52323;DHT22;38263;52.920;6.238;2023-07-29T13:01:15;21.70;99.90
52323;DHT22;38263;52.920;6.238;2023-07-29T13:03:44;21.70;99.90
52323;DHT22;38263;52.920;6.238;2023-07-29T13:06:10;23.40;99.90
52323;DHT22;38263;52.920;6.238;2023-07-29T13:08:35;21.80;99.90
52323;DHT22;38263;52.920;6.238;2023-07-29T13:11:02;22.00;99.90
52323;DHT22;38263;52.920;6.238;2023-07-29T13:13:27;21.90;99.90
52323;DHT22;38263;52.920;6.238;2023-07-29T13:15:53;21.60;99.90
52323;DHT22;38263;52.920;6.238;2023-07-29T13:18:18;21.90;99.90
52323;DHT22;38263;52.920;6.238;2023-07-29T13:20:44;23.10;99.90
52323;DHT22;38263;52.920;6.238;2023-07-29T13:23:09;21.60;99.90
52323;DHT22;38263;52.920;6.238;2023-07-29T13:25:35;21.90;99.90
52323;DHT22;38263;52.920;6.238;2023-07-29T13:28:01;22.90;99.90
52323;DHT22;38263;52.920;6.238;2023-07-29T13:30:26;21.70;99.90
52323;DHT22;38263;52.920;6.238;2023-07-29T13:32:52;21.60;99.90
52323;DHT22;38263;52.920;6.238;2023-07-29T13:35:17;21.50;99.90
52323;DHT22;38263;52.920;6.238;2023-07-29T13:37:43;21.70;99.90
52323;DHT22;38263;52.920;6.238;2023-07-29T13:40:08;21.80;99.90
52323;DHT22;38263;52.920;6.238;2023-07-29T13:42:34;22.10;99.90
52323;DHT22;38263;52.920;6.238;2023-07-29T13:45:00;22.00;99.90
52323;DHT22;38263;52.920;6.238;2023-07-29T13:47:25;22.20;99.90
52323;DHT22;38263;52.920;6.238;2023-07-29T13:49:51;22.10;99.90
52323;DHT22;38263;52.920;6.238;2023-07-29T13:52:16;22.20;99.90
52323;DHT22;38263;52.920;6.238;2023-07-29T13:54:42;22.00;99.90
52323;DHT22;38263;52.920;6.238;2023-07-29T13:57:07;22.20;99.90
52323;DHT22;38263;52.920;6.238;2023-07-29T13:59:35;22.00;99.90
52323;DHT22;38263;52.920;6.238;2023-07-29T14:02:06;22.00;99.90
52323;DHT22;38263;52.920;6.238;2023-07-29T14:04:33;22.20;99.90
52323;DHT22;38263;52.920;6.238;2023-07-29T14:06:59;22.10;99.90
52323;DHT22;38263;52.920;6.238;2023-07-29T14:09:25;22.20;99.90
52323;DHT22;38263;52.920;6.238;2023-07-29T14:11:51;22.20;99.90
52323;DHT22;38263;52.920;6.238;2023-07-29T14:14:16;22.60;99.90
52323;DHT22;38263;52.920;6.238;2023-07-29T14:16:42;22.40;99.90
52323;DHT22;38263;52.920;6.238;2023-07-29T14:19:07;22.50;99.90
52323;DHT22;38263;52.920;6.238;2023-07-29T14:21:33;24.20;99.90
52323;DHT22;38263;52.920;6.238;2023-07-29T14:23:58;22.30;99.90
52323;DHT22;38263;52.920;6.238;2023-07-29T14:26:24;22.00;99.90
52323;DHT22;38263;52.920;6.238;2023-07-29T14:28:50;22.20;99.90
52323;DHT22;38263;52.920;6.238;2023-07-29T14:31:16;22.00;99.90
52323;DHT22;38263;52.920;6.238;2023-07-29T14:33:44;22.10;99.90
52323;DHT22;38263;52.920;6.238;2023-07-29T14:36:10;22.20;99.90
52323;DHT22;38263;52.920;6.238;2023-07-29T14:38:36;22.10;99.90
52323;DHT22;38263;52.920;6.238;2023-07-29T14:41:02;22.30;99.90
52323;DHT22;38263;52.920;6.238;2023-07-29T14:43:28;22.20;99.90
52323;DHT22;38263;52.920;6.238;2023-07-29T14:45:54;22.20;99.90
52323;DHT22;38263;52.920;6.238;2023-07-29T14:48:19;21.90;99.90
52323;DHT22;38263;52.920;6.238;2023-07-29T14:50:45;22.20;99.90
52323;DHT22;38263;52.920;6.238;2023-07-29T14:53:11;21.90;99.90
52323;DHT22;38263;52.920;6.238;2023-07-29T14:55:37;22.30;99.90
52323;DHT22;38263;52.920;6.238;2023-07-29T14:58:03;22.20;99.90
52323;DHT22;38263;52.920;6.238;2023-07-29T15:00:28;22.20;99.90
52323;DHT22;38263;52.920;6.238;2023-07-29T15:02:54;22.50;99.90
52323;DHT22;38263;52.920;6.238;2023-07-29T15:05:19;22.60;99.90
52323;DHT22;38263;52.920;6.238;2023-07-29T15:07:46;22.70;99.90
52323;DHT22;38263;52.920;6.238;2023-07-29T15:10:15;23.90;99.90
52323;DHT22;38263;52.920;6.238;2023-07-29T15:12:44;23.20;99.90
52323;DHT22;38263;52.920;6.238;2023-07-29T15:15:10;22.50;99.90
52323;DHT22;38263;52.920;6.238;2023-07-29T15:17:36;22.70;99.90
52323;DHT22;38263;52.920;6.238;2023-07-29T15:20:02;22.80;99.90
52323;DHT22;38263;52.920;6.238;2023-07-29T15:22:29;22.60;99.90
52323;DHT22;38263;52.920;6.238;2023-07-29T15:24:57;24.40;99.90
52323;DHT22;38263;52.920;6.238;2023-07-29T15:27:23;24.40;99.90
52323;DHT22;38263;52.920;6.238;2023-07-29T15:29:48;22.60;99.90
52323;DHT22;38263;52.920;6.238;2023-07-29T15:32:14;22.50;99.90
52323;DHT22;38263;52.920;6.238;2023-07-29T15:34:39;22.50;99.90
52323;DHT22;38263;52.920;6.238;2023-07-29T15:37:05;22.60;99.90
52323;DHT22;38263;52.920;6.238;2023-07-29T15:39:30;22.60;99.90
52323;DHT22;38263;52.920;6.238;2023-07-29T15:41:56;22.90;99.90
52323;DHT22;38263;52.920;6.238;2023-07-29T15:44:22;24.80;99.90
52323;DHT22;38263;52.920;6.238;2023-07-29T15:46:48;22.70;99.90
52323;DHT22;38263;52.920;6.238;2023-07-29T15:49:17;23.10;99.90
52323;DHT22;38263;52.920;6.238;2023-07-29T15:51:42;23.10;99.90
52323;DHT22;38263;52.920;6.238;2023-07-29T15:54:08;22.80;99.90
52323;DHT22;38263;52.920;6.238;2023-07-29T15:56:34;24.40;99.90
52323;DHT22;38263;52.920;6.238;2023-07-29T15:59:02;22.80;99.90
52323;DHT22;38263;52.920;6.238;2023-07-29T16:01:28;22.40;99.90
52323;DHT22;38263;52.920;6.238;2023-07-29T16:03:54;22.70;99.90
52323;DHT22;38263;52.920;6.238;2023-07-29T16:06:20;22.30;99.90
52323;DHT22;38263;52.920;6.238;2023-07-29T16:08:46;24.40;99.90
52323;DHT22;38263;52.920;6.238;2023-07-29T16:11:11;22.20;99.90
52323;DHT22;38263;52.920;6.238;2023-07-29T16:13:37;23.80;99.90
52323;DHT22;38263;52.920;6.238;2023-07-29T16:16:03;22.20;99.90
52323;DHT22;38263;52.920;6.238;2023-07-29T16:18:30;22.40;99.90
52323;DHT22;38263;52.920;6.238;2023-07-29T16:20:56;24.40;99.90
52323;DHT22;38263;52.920;6.238;2023-07-29T16:23:31;24.50;99.90
52323;DHT22;38263;52.920;6.238;2023-07-29T16:25:57;22.70;99.90
52323;DHT22;38263;52.920;6.238;2023-07-29T16:28:23;24.60;99.90
52323;DHT22;38263;52.920;6.238;2023-07-29T16:30:49;24.50;99.90
52323;DHT22;38263;52.920;6.238;2023-07-29T16:33:14;22.00;99.90
52323;DHT22;38263;52.920;6.238;2023-07-29T16:35:40;24.60;99.90
52323;DHT22;38263;52.920;6.238;2023-07-29T16:38:06;22.20;99.90
52323;DHT22;38263;52.920;6.238;2023-07-29T16:40:32;24.30;99.90
52323;DHT22;38263;52.920;6.238;2023-07-29T16:42:58;23.50;99.90
52323;DHT22;38263;52.920;6.238;2023-07-29T16:45:24;24.00;99.90
52323;DHT22;38263;52.920;6.238;2023-07-29T16:47:50;25.00;99.90
52323;DHT22;38263;52.920;6.238;2023-07-29T16:50:16;24.50;99.90
52323;DHT22;38263;52.920;6.238;2023-07-29T16:52:42;22.60;99.90
52323;DHT22;38263;52.920;6.238;2023-07-29T16:55:08;22.50;99.90
52323;DHT22;38263;52.920;6.238;2023-07-29T16:57:34;22.60;99.90
52323;DHT22;38263;52.920;6.238;2023-07-29T17:00:00;22.20;99.90
52323;DHT22;38263;52.920;6.238;2023-07-29T17:02:25;22.30;99.90
52323;DHT22;38263;52.920;6.238;2023-07-29T17:04:51;23.30;99.90
52323;DHT22;38263;52.920;6.238;2023-07-29T17:07:16;22.10;99.90
52323;DHT22;38263;52.920;6.238;2023-07-29T17:09:43;23.50;99.90
52323;DHT22;38263;52.920;6.238;2023-07-29T17:12:11;24.50;99.90
52323;DHT22;38263;52.920;6.238;2023-07-29T17:14:37;24.40;99.90
52323;DHT22;38263;52.920;6.238;2023-07-29T17:17:03;21.80;99.90
52323;DHT22;38263;52.920;6.238;2023-07-29T17:19:29;22.20;99.90
52323;DHT22;38263;52.920;6.238;2023-07-29T17:21:54;23.50;99.90
52323;DHT22;38263;52.920;6.238;2023-07-29T17:24:20;23.70;99.90
52323;DHT22;38263;52.920;6.238;2023-07-29T17:26:45;21.80;99.90
52323;DHT22;38263;52.920;6.238;2023-07-29T17:29:11;23.90;99.90
52323;DHT22;38263;52.920;6.238;2023-07-29T17:31:36;21.50;99.90
52323;DHT22;38263;52.920;6.238;2023-07-29T17:34:02;21.70;99.90
52323;DHT22;38263;52.920;6.238;2023-07-29T17:36:28;23.30;99.90
52323;DHT22;38263;52.920;6.238;2023-07-29T17:38:53;23.40;99.90
52323;DHT22;38263;52.920;6.238;2023-07-29T17:41:19;22.90;99.90
52323;DHT22;38263;52.920;6.238;2023-07-29T17:43:45;22.90;99.90
52323;DHT22;38263;52.920;6.238;2023-07-29T17:46:13;23.80;99.90
52323;DHT22;38263;52.920;6.238;2023-07-29T17:48:42;22.50;99.90
52323;DHT22;38263;52.920;6.238;2023-07-29T17:51:08;22.50;99.90
52323;DHT22;38263;52.920;6.238;2023-07-29T17:53:34;23.30;99.90
52323;DHT22;38263;52.920;6.238;2023-07-29T17:55:59;20.50;99.90
52323;DHT22;38263;52.920;6.238;2023-07-29T17:58:25;20.60;99.90
52323;DHT22;38263;52.920;6.238;2023-07-29T18:00:51;21.20;99.90
52323;DHT22;38263;52.920;6.238;2023-07-29T18:03:18;23.10;99.90
52323;DHT22;38263;52.920;6.238;2023-07-29T18:05:44;22.40;99.90
52323;DHT22;38263;52.920;6.238;2023-07-29T18:08:09;22.60;99.90
52323;DHT22;38263;52.920;6.238;2023-07-29T18:10:39;21.90;99.90
52323;DHT22;38263;52.920;6.238;2023-07-29T18:13:06;22.50;99.90
52323;DHT22;38263;52.920;6.238;2023-07-29T18:15:31;20.80;99.90
52323;DHT22;38263;52.920;6.238;2023-07-29T18:17:57;21.30;99.90
52323;DHT22;38263;52.920;6.238;2023-07-29T18:20:23;22.20;99.90
52323;DHT22;38263;52.920;6.238;2023-07-29T18:22:49;20.50;99.90
52323;DHT22;38263;52.920;6.238;2023-07-29T18:25:15;22.70;99.90
52323;DHT22;38263;52.920;6.238;2023-07-29T18:27:40;20.40;99.90
52323;DHT22;38263;52.920;6.238;2023-07-29T18:30:06;20.20;99.90
52323;DHT22;38263;52.920;6.238;2023-07-29T18:32:32;20.30;99.90
52323;DHT22;38263;52.920;6.238;2023-07-29T18:34:58;20.10;99.90
52323;DHT22;38263;52.920;6.238;2023-07-29T18:37:23;22.60;99.90
52323;DHT22;38263;52.920;6.238;2023-07-29T18:39:49;19.70;99.90
52323;DHT22;38263;52.920;6.238;2023-07-29T18:42:15;18.80;99.90
52323;DHT22;38263;52.920;6.238;2023-07-29T18:44:43;21.60;99.90
52323;DHT22;38263;52.920;6.238;2023-07-29T18:47:09;19.50;99.90
52323;DHT22;38263;52.920;6.238;2023-07-29T18:49:35;20.00;99.90
52323;DHT22;38263;52.920;6.238;2023-07-29T18:52:01;19.50;99.90
52323;DHT22;38263;52.920;6.238;2023-07-29T18:54:26;21.60;99.90
52323;DHT22;38263;52.920;6.238;2023-07-29T18:56:52;19.40;99.90
52323;DHT22;38263;52.920;6.238;2023-07-29T18:59:17;21.20;99.90
52323;DHT22;38263;52.920;6.238;2023-07-29T19:01:46;21.00;99.90
52323;DHT22;38263;52.920;6.238;2023-07-29T19:04:12;19.50;99.90
52323;DHT22;38263;52.920;6.238;2023-07-29T19:06:38;19.40;99.90
52323;DHT22;38263;52.920;6.238;2023-07-29T19:09:04;21.00;99.90